Terminal Aerodrome Forecast
Issued by NWS

Current Version | Previous Version | Graphics & Text | Print | Product List | Glossary On
Versions: 1 2 3 4 5 6 7 8 9 10 11 12 13 14 15 16 17 18 19
000
FTUS41 KILN 282000 AAA
TAFLUK
TAF AMD
KLUK 282053Z 2821/2918 31011KT P6SM SCT040 BKN070
     FM290000 32005KT P6SM SCT070
     FM290900 33003KT P6SM BKN035
     FM291400 31006KT P6SM SCT040=

USA.gov is the U.S. government's official web portal to all federal, state and local government web resources and services.